sensor_id;sensor_type;location;lat;lon;timestamp;temperature;humidity
254;DHT22;590;48.772;8.846;2022-08-18T00:01:12;19.90;70.80
254;DHT22;590;48.772;8.846;2022-08-18T00:03:42;19.80;72.00
254;DHT22;590;48.772;8.846;2022-08-18T00:06:28;19.80;73.70
254;DHT22;590;48.772;8.846;2022-08-18T00:08:58;19.70;75.40
254;DHT22;590;48.772;8.846;2022-08-18T00:11:27;19.70;76.10
254;DHT22;590;48.772;8.846;2022-08-18T00:14:10;19.70;76.30
254;DHT22;590;48.772;8.846;2022-08-18T00:16:50;19.70;76.90
254;DHT22;590;48.772;8.846;2022-08-18T00:19:19;19.60;77.50
254;DHT22;590;48.772;8.846;2022-08-18T00:22:08;19.60;78.30
254;DHT22;590;48.772;8.846;2022-08-18T00:24:42;19.60;78.40
254;DHT22;590;48.772;8.846;2022-08-18T00:27:16;19.60;78.70
254;DHT22;590;48.772;8.846;2022-08-18T00:29:50;19.60;79.00
254;DHT22;590;48.772;8.846;2022-08-18T00:32:21;19.60;78.70
254;DHT22;590;48.772;8.846;2022-08-18T00:34:50;19.60;78.70
254;DHT22;590;48.772;8.846;2022-08-18T00:37:20;19.60;78.50
254;DHT22;590;48.772;8.846;2022-08-18T00:39:50;19.60;78.60
254;DHT22;590;48.772;8.846;2022-08-18T00:42:21;19.60;78.60
254;DHT22;590;48.772;8.846;2022-08-18T00:44:59;19.60;78.60
254;DHT22;590;48.772;8.846;2022-08-18T00:47:29;19.60;79.00
254;DHT22;590;48.772;8.846;2022-08-18T00:50:11;19.60;79.30
254;DHT22;590;48.772;8.846;2022-08-18T00:52:46;19.60;79.30
254;DHT22;590;48.772;8.846;2022-08-18T00:55:17;19.60;79.30
254;DHT22;590;48.772;8.846;2022-08-18T00:57:49;19.60;80.00
254;DHT22;590;48.772;8.846;2022-08-18T01:00:17;19.60;80.70
254;DHT22;590;48.772;8.846;2022-08-18T01:02:50;19.60;82.10
254;DHT22;590;48.772;8.846;2022-08-18T01:05:25;19.60;82.90
254;DHT22;590;48.772;8.846;2022-08-18T01:07:56;19.60;83.80
254;DHT22;590;48.772;8.846;2022-08-18T01:10:24;19.60;82.50
254;DHT22;590;48.772;8.846;2022-08-18T01:12:56;19.50;82.50
254;DHT22;590;48.772;8.846;2022-08-18T01:15:26;19.50;83.40
254;DHT22;590;48.772;8.846;2022-08-18T01:18:00;19.50;83.50
254;DHT22;590;48.772;8.846;2022-08-18T01:20:53;19.50;84.00
254;DHT22;590;48.772;8.846;2022-08-18T01:23:44;19.50;84.80
254;DHT22;590;48.772;8.846;2022-08-18T01:26:14;19.50;85.80
254;DHT22;590;48.772;8.846;2022-08-18T01:28:43;19.50;85.70
254;DHT22;590;48.772;8.846;2022-08-18T01:31:28;19.50;85.60
254;DHT22;590;48.772;8.846;2022-08-18T01:33:56;19.50;85.70
254;DHT22;590;48.772;8.846;2022-08-18T01:36:25;19.50;87.00
254;DHT22;590;48.772;8.846;2022-08-18T01:38:55;19.50;88.40
254;DHT22;590;48.772;8.846;2022-08-18T01:41:23;19.50;88.70
254;DHT22;590;48.772;8.846;2022-08-18T01:43:57;19.40;87.50
254;DHT22;590;48.772;8.846;2022-08-18T01:46:25;19.40;88.30
254;DHT22;590;48.772;8.846;2022-08-18T01:48:54;19.30;90.00
254;DHT22;590;48.772;8.846;2022-08-18T01:51:24;19.40;90.40
254;DHT22;590;48.772;8.846;2022-08-18T01:54:10;19.40;90.10
254;DHT22;590;48.772;8.846;2022-08-18T01:56:39;19.40;90.00
254;DHT22;590;48.772;8.846;2022-08-18T01:59:08;19.40;89.80
254;DHT22;590;48.772;8.846;2022-08-18T02:01:41;19.40;90.20
254;DHT22;590;48.772;8.846;2022-08-18T02:04:16;19.50;90.60
254;DHT22;590;48.772;8.846;2022-08-18T02:07:05;19.40;90.90
254;DHT22;590;48.772;8.846;2022-08-18T02:09:38;19.50;91.60
254;DHT22;590;48.772;8.846;2022-08-18T02:12:07;19.40;92.30
254;DHT22;590;48.772;8.846;2022-08-18T02:14:35;19.40;92.90
254;DHT22;590;48.772;8.846;2022-08-18T02:17:05;19.30;93.40
254;DHT22;590;48.772;8.846;2022-08-18T02:19:35;19.30;93.80
254;DHT22;590;48.772;8.846;2022-08-18T02:22:06;19.30;93.50
254;DHT22;590;48.772;8.846;2022-08-18T02:24:36;19.30;93.70
254;DHT22;590;48.772;8.846;2022-08-18T02:27:04;19.30;94.30
254;DHT22;590;48.772;8.846;2022-08-18T02:29:33;19.30;93.90
254;DHT22;590;48.772;8.846;2022-08-18T02:32:01;19.30;93.90
254;DHT22;590;48.772;8.846;2022-08-18T02:34:29;19.30;93.60
254;DHT22;590;48.772;8.846;2022-08-18T02:36:58;19.40;93.10
254;DHT22;590;48.772;8.846;2022-08-18T02:39:26;19.30;93.20
254;DHT22;590;48.772;8.846;2022-08-18T02:41:56;19.30;93.20
254;DHT22;590;48.772;8.846;2022-08-18T02:44:24;19.30;92.90
254;DHT22;590;48.772;8.846;2022-08-18T02:46:53;19.30;93.10
254;DHT22;590;48.772;8.846;2022-08-18T02:49:21;19.30;92.80
254;DHT22;590;48.772;8.846;2022-08-18T02:51:49;19.30;92.70
254;DHT22;590;48.772;8.846;2022-08-18T02:54:18;19.30;92.90
254;DHT22;590;48.772;8.846;2022-08-18T02:56:46;19.30;93.50
254;DHT22;590;48.772;8.846;2022-08-18T02:59:17;19.30;93.40
254;DHT22;590;48.772;8.846;2022-08-18T03:01:48;19.30;92.60
254;DHT22;590;48.772;8.846;2022-08-18T03:04:19;19.30;92.50
254;DHT22;590;48.772;8.846;2022-08-18T03:06:56;19.30;92.40
254;DHT22;590;48.772;8.846;2022-08-18T03:09:25;19.40;92.40
254;DHT22;590;48.772;8.846;2022-08-18T03:11:54;19.30;92.40
254;DHT22;590;48.772;8.846;2022-08-18T03:14:23;19.30;92.90
254;DHT22;590;48.772;8.846;2022-08-18T03:16:51;19.20;93.10
254;DHT22;590;48.772;8.846;2022-08-18T03:19:22;19.20;93.20
254;DHT22;590;48.772;8.846;2022-08-18T03:21:50;19.30;93.70
254;DHT22;590;48.772;8.846;2022-08-18T03:24:23;19.20;93.80
254;DHT22;590;48.772;8.846;2022-08-18T03:26:52;19.20;93.90
254;DHT22;590;48.772;8.846;2022-08-18T03:29:23;19.30;94.00
254;DHT22;590;48.772;8.846;2022-08-18T03:31:58;19.30;94.30
254;DHT22;590;48.772;8.846;2022-08-18T03:34:27;19.30;94.90
254;DHT22;590;48.772;8.846;2022-08-18T03:36:55;19.30;94.40
254;DHT22;590;48.772;8.846;2022-08-18T03:39:25;19.30;94.50
254;DHT22;590;48.772;8.846;2022-08-18T03:41:55;19.30;94.60
254;DHT22;590;48.772;8.846;2022-08-18T03:44:31;19.30;94.20
254;DHT22;590;48.772;8.846;2022-08-18T03:47:00;19.30;93.50
254;DHT22;590;48.772;8.846;2022-08-18T03:49:30;19.30;92.80
254;DHT22;590;48.772;8.846;2022-08-18T03:51:59;19.40;92.40
254;DHT22;590;48.772;8.846;2022-08-18T03:54:28;19.40;92.60
254;DHT22;590;48.772;8.846;2022-08-18T03:56:58;19.30;92.30
254;DHT22;590;48.772;8.846;2022-08-18T03:59:28;19.30;92.30
254;DHT22;590;48.772;8.846;2022-08-18T04:01:58;19.30;92.30
254;DHT22;590;48.772;8.846;2022-08-18T04:04:27;19.30;92.30
254;DHT22;590;48.772;8.846;2022-08-18T04:06:58;19.30;92.80
254;DHT22;590;48.772;8.846;2022-08-18T04:09:28;19.30;93.30
254;DHT22;590;48.772;8.846;2022-08-18T04:11:57;19.30;93.60
254;DHT22;590;48.772;8.846;2022-08-18T04:14:31;19.30;93.40
254;DHT22;590;48.772;8.846;2022-08-18T04:16:59;19.30;93.10
254;DHT22;590;48.772;8.846;2022-08-18T04:19:27;19.30;92.90
254;DHT22;590;48.772;8.846;2022-08-18T04:21:57;19.30;92.70
254;DHT22;590;48.772;8.846;2022-08-18T04:24:26;19.30;92.50
254;DHT22;590;48.772;8.846;2022-08-18T04:26:59;19.30;92.60
254;DHT22;590;48.772;8.846;2022-08-18T04:29:28;19.30;92.80
254;DHT22;590;48.772;8.846;2022-08-18T04:31:59;19.30;93.10
254;DHT22;590;48.772;8.846;2022-08-18T04:34:28;19.30;93.40
254;DHT22;590;48.772;8.846;2022-08-18T04:36:56;19.30;93.10
254;DHT22;590;48.772;8.846;2022-08-18T04:39:24;19.20;92.70
254;DHT22;590;48.772;8.846;2022-08-18T04:41:52;19.20;92.70
254;DHT22;590;48.772;8.846;2022-08-18T04:44:20;19.20;92.70
254;DHT22;590;48.772;8.846;2022-08-18T04:46:50;19.20;92.70
254;DHT22;590;48.772;8.846;2022-08-18T04:49:22;19.20;92.80
254;DHT22;590;48.772;8.846;2022-08-18T04:51:52;19.20;93.20
254;DHT22;590;48.772;8.846;2022-08-18T04:54:59;19.20;93.60
254;DHT22;590;48.772;8.846;2022-08-18T04:57:28;19.20;94.30
254;DHT22;590;48.772;8.846;2022-08-18T04:59:59;19.20;95.00
254;DHT22;590;48.772;8.846;2022-08-18T05:02:28;19.10;94.70
254;DHT22;590;48.772;8.846;2022-08-18T05:05:04;19.10;94.90
254;DHT22;590;48.772;8.846;2022-08-18T05:07:34;19.20;94.90
254;DHT22;590;48.772;8.846;2022-08-18T05:10:03;19.20;94.10
254;DHT22;590;48.772;8.846;2022-08-18T05:12:33;19.20;94.00
254;DHT22;590;48.772;8.846;2022-08-18T05:15:07;19.20;93.90
254;DHT22;590;48.772;8.846;2022-08-18T05:17:38;19.30;94.10
254;DHT22;590;48.772;8.846;2022-08-18T05:20:09;19.40;94.30
254;DHT22;590;48.772;8.846;2022-08-18T05:22:37;19.50;94.00
254;DHT22;590;48.772;8.846;2022-08-18T05:25:08;19.50;93.70
254;DHT22;590;48.772;8.846;2022-08-18T05:27:39;19.60;93.70
254;DHT22;590;48.772;8.846;2022-08-18T05:30:10;19.60;93.60
254;DHT22;590;48.772;8.846;2022-08-18T05:32:41;19.70;93.30
254;DHT22;590;48.772;8.846;2022-08-18T05:35:19;19.70;93.20
254;DHT22;590;48.772;8.846;2022-08-18T05:38:06;19.80;93.00
254;DHT22;590;48.772;8.846;2022-08-18T05:40:37;20.00;93.10
254;DHT22;590;48.772;8.846;2022-08-18T05:43:06;20.20;93.00
254;DHT22;590;48.772;8.846;2022-08-18T05:45:35;20.60;90.70
254;DHT22;590;48.772;8.846;2022-08-18T05:48:03;21.10;87.20
254;DHT22;590;48.772;8.846;2022-08-18T05:50:34;21.60;81.50
254;DHT22;590;48.772;8.846;2022-08-18T05:53:08;21.80;75.30
254;DHT22;590;48.772;8.846;2022-08-18T05:55:44;22.00;72.30
254;DHT22;590;48.772;8.846;2022-08-18T05:58:34;22.00;70.50
254;DHT22;590;48.772;8.846;2022-08-18T06:01:06;22.00;69.90
254;DHT22;590;48.772;8.846;2022-08-18T06:03:39;21.90;70.40
254;DHT22;590;48.772;8.846;2022-08-18T06:06:17;21.90;70.80
254;DHT22;590;48.772;8.846;2022-08-18T06:08:51;21.90;71.50
254;DHT22;590;48.772;8.846;2022-08-18T06:11:20;22.10;71.10
254;DHT22;590;48.772;8.846;2022-08-18T06:13:49;22.10;69.70
254;DHT22;590;48.772;8.846;2022-08-18T06:16:41;22.20;69.00
254;DHT22;590;48.772;8.846;2022-08-18T06:19:27;22.30;69.00
254;DHT22;590;48.772;8.846;2022-08-18T06:22:10;22.30;67.20
254;DHT22;590;48.772;8.846;2022-08-18T06:24:46;22.40;65.70
254;DHT22;590;48.772;8.846;2022-08-18T06:27:26;22.50;64.60
254;DHT22;590;48.772;8.846;2022-08-18T06:30:08;22.70;63.40
254;DHT22;590;48.772;8.846;2022-08-18T06:32:51;22.90;61.00
254;DHT22;590;48.772;8.846;2022-08-18T06:35:28;22.90;60.00
254;DHT22;590;48.772;8.846;2022-08-18T06:38:06;22.80;60.60
254;DHT22;590;48.772;8.846;2022-08-18T06:41:00;22.80;61.00
254;DHT22;590;48.772;8.846;2022-08-18T06:43:28;22.80;61.30
254;DHT22;590;48.772;8.846;2022-08-18T06:46:00;22.80;61.50
254;DHT22;590;48.772;8.846;2022-08-18T06:48:38;22.80;60.50
254;DHT22;590;48.772;8.846;2022-08-18T06:51:09;22.80;60.70
254;DHT22;590;48.772;8.846;2022-08-18T06:53:52;22.80;60.90
254;DHT22;590;48.772;8.846;2022-08-18T06:56:24;22.90;61.60
254;DHT22;590;48.772;8.846;2022-08-18T06:58:53;23.00;59.60
254;DHT22;590;48.772;8.846;2022-08-18T07:01:22;23.10;57.30
254;DHT22;590;48.772;8.846;2022-08-18T07:03:54;23.20;56.10
254;DHT22;590;48.772;8.846;2022-08-18T07:06:28;23.40;56.30
254;DHT22;590;48.772;8.846;2022-08-18T07:09:19;23.50;57.00
254;DHT22;590;48.772;8.846;2022-08-18T07:12:00;23.70;55.90
254;DHT22;590;48.772;8.846;2022-08-18T07:14:28;23.90;55.00
254;DHT22;590;48.772;8.846;2022-08-18T07:17:06;23.90;52.00
254;DHT22;590;48.772;8.846;2022-08-18T07:19:36;23.90;51.70
254;DHT22;590;48.772;8.846;2022-08-18T07:22:07;23.90;51.00
254;DHT22;590;48.772;8.846;2022-08-18T07:24:41;23.70;51.00
254;DHT22;590;48.772;8.846;2022-08-18T07:27:11;23.60;50.90
254;DHT22;590;48.772;8.846;2022-08-18T07:29:58;23.40;52.00
254;DHT22;590;48.772;8.846;2022-08-18T07:32:31;23.20;52.60
254;DHT22;590;48.772;8.846;2022-08-18T07:35:06;23.00;53.70
254;DHT22;590;48.772;8.846;2022-08-18T07:37:42;22.80;56.50
254;DHT22;590;48.772;8.846;2022-08-18T07:40:22;22.70;58.30
254;DHT22;590;48.772;8.846;2022-08-18T07:42:55;22.50;57.60
254;DHT22;590;48.772;8.846;2022-08-18T07:45:32;22.30;59.40
254;DHT22;590;48.772;8.846;2022-08-18T07:48:05;22.20;60.80
254;DHT22;590;48.772;8.846;2022-08-18T07:50:58;22.10;60.80
254;DHT22;590;48.772;8.846;2022-08-18T07:53:42;21.90;61.40
254;DHT22;590;48.772;8.846;2022-08-18T07:56:32;21.80;61.70
254;DHT22;590;48.772;8.846;2022-08-18T07:59:11;21.70;63.20
254;DHT22;590;48.772;8.846;2022-08-18T08:01:47;21.70;64.10
254;DHT22;590;48.772;8.846;2022-08-18T08:04:25;21.70;65.10
254;DHT22;590;48.772;8.846;2022-08-18T08:07:01;21.60;65.90
254;DHT22;590;48.772;8.846;2022-08-18T08:09:57;21.60;67.20
254;DHT22;590;48.772;8.846;2022-08-18T08:12:35;21.60;67.60
254;DHT22;590;48.772;8.846;2022-08-18T08:15:13;21.50;68.50
254;DHT22;590;48.772;8.846;2022-08-18T08:17:50;21.50;69.40
254;DHT22;590;48.772;8.846;2022-08-18T08:20:26;21.40;69.80
254;DHT22;590;48.772;8.846;2022-08-18T08:23:11;21.50;69.90
254;DHT22;590;48.772;8.846;2022-08-18T08:25:52;21.50;69.90
254;DHT22;590;48.772;8.846;2022-08-18T08:28:36;21.60;70.20
254;DHT22;590;48.772;8.846;2022-08-18T08:31:10;21.70;69.90
254;DHT22;590;48.772;8.846;2022-08-18T08:34:06;21.80;69.50
254;DHT22;590;48.772;8.846;2022-08-18T08:36:39;21.90;69.10
254;DHT22;590;48.772;8.846;2022-08-18T08:39:13;22.00;68.20
254;DHT22;590;48.772;8.846;2022-08-18T08:41:46;22.10;67.60
254;DHT22;590;48.772;8.846;2022-08-18T08:44:21;22.10;66.80
254;DHT22;590;48.772;8.846;2022-08-18T08:46:55;22.20;66.50
254;DHT22;590;48.772;8.846;2022-08-18T08:49:31;22.30;66.10
254;DHT22;590;48.772;8.846;2022-08-18T08:52:03;22.30;66.30
254;DHT22;590;48.772;8.846;2022-08-18T08:54:39;22.50;65.80
254;DHT22;590;48.772;8.846;2022-08-18T08:57:08;22.60;65.40
254;DHT22;590;48.772;8.846;2022-08-18T08:59:39;22.90;63.60
254;DHT22;590;48.772;8.846;2022-08-18T09:02:25;23.00;63.80
254;DHT22;590;48.772;8.846;2022-08-18T09:05:17;23.10;62.70
254;DHT22;590;48.772;8.846;2022-08-18T09:08:07;23.30;61.30
254;DHT22;590;48.772;8.846;2022-08-18T09:11:05;23.30;60.30
254;DHT22;590;48.772;8.846;2022-08-18T09:16:46;23.80;58.80
254;DHT22;590;48.772;8.846;2022-08-18T09:19:38;24.20;56.10
254;DHT22;590;48.772;8.846;2022-08-18T09:22:17;24.70;53.80
254;DHT22;590;48.772;8.846;2022-08-18T09:24:54;25.10;49.50
254;DHT22;590;48.772;8.846;2022-08-18T09:27:34;25.40;46.00
254;DHT22;590;48.772;8.846;2022-08-18T09:30:42;25.60;44.40
254;DHT22;590;48.772;8.846;2022-08-18T09:33:26;25.70;42.10
254;DHT22;590;48.772;8.846;2022-08-18T09:36:20;26.00;42.40
254;DHT22;590;48.772;8.846;2022-08-18T09:38:55;26.30;41.00
254;DHT22;590;48.772;8.846;2022-08-18T09:41:48;26.80;37.10
254;DHT22;590;48.772;8.846;2022-08-18T09:51:18;27.10;32.70
254;DHT22;590;48.772;8.846;2022-08-18T09:57:17;27.80;29.20
254;DHT22;590;48.772;8.846;2022-08-18T10:03:17;27.50;30.00
254;DHT22;590;48.772;8.846;2022-08-18T10:06:20;27.50;30.10
254;DHT22;590;48.772;8.846;2022-08-18T10:12:20;27.10;31.50
254;DHT22;590;48.772;8.846;2022-08-18T10:15:19;26.80;31.10
254;DHT22;590;48.772;8.846;2022-08-18T10:21:01;26.40;32.50
254;DHT22;590;48.772;8.846;2022-08-18T10:23:49;26.20;34.90
254;DHT22;590;48.772;8.846;2022-08-18T10:27:08;26.10;34.10
254;DHT22;590;48.772;8.846;2022-08-18T10:29:45;25.90;35.00
254;DHT22;590;48.772;8.846;2022-08-18T10:38:23;25.70;37.40
254;DHT22;590;48.772;8.846;2022-08-18T10:41:04;25.90;38.40
254;DHT22;590;48.772;8.846;2022-08-18T10:43:41;26.00;36.50
254;DHT22;590;48.772;8.846;2022-08-18T10:46:32;26.00;35.00
254;DHT22;590;48.772;8.846;2022-08-18T10:49:19;25.80;36.50
254;DHT22;590;48.772;8.846;2022-08-18T10:55:17;25.80;37.40
254;DHT22;590;48.772;8.846;2022-08-18T10:58:02;25.80;37.50
254;DHT22;590;48.772;8.846;2022-08-18T11:00:42;25.80;37.50
254;DHT22;590;48.772;8.846;2022-08-18T11:03:19;26.10;38.40
254;DHT22;590;48.772;8.846;2022-08-18T11:06:16;26.30;36.60
254;DHT22;590;48.772;8.846;2022-08-18T11:08:49;26.70;34.80
254;DHT22;590;48.772;8.846;2022-08-18T11:11:33;26.90;32.70
254;DHT22;590;48.772;8.846;2022-08-18T11:14:22;27.00;31.00
254;DHT22;590;48.772;8.846;2022-08-18T11:17:00;27.10;31.40
254;DHT22;590;48.772;8.846;2022-08-18T11:19:35;27.30;30.40
254;DHT22;590;48.772;8.846;2022-08-18T11:22:20;27.40;28.60
254;DHT22;590;48.772;8.846;2022-08-18T11:25:00;27.20;27.80
254;DHT22;590;48.772;8.846;2022-08-18T11:27:32;27.10;28.30
254;DHT22;590;48.772;8.846;2022-08-18T11:30:05;27.00;28.00
254;DHT22;590;48.772;8.846;2022-08-18T11:32:39;27.00;29.10
254;DHT22;590;48.772;8.846;2022-08-18T11:35:28;27.00;27.70
254;DHT22;590;48.772;8.846;2022-08-18T11:37:58;27.00;27.30
254;DHT22;590;48.772;8.846;2022-08-18T11:40:31;27.10;27.70
254;DHT22;590;48.772;8.846;2022-08-18T11:43:24;27.10;27.20
254;DHT22;590;48.772;8.846;2022-08-18T11:46:15;27.30;27.00
254;DHT22;590;48.772;8.846;2022-08-18T11:48:57;27.30;25.60
254;DHT22;590;48.772;8.846;2022-08-18T11:51:28;27.30;26.00
254;DHT22;590;48.772;8.846;2022-08-18T11:54:19;27.30;25.80
254;DHT22;590;48.772;8.846;2022-08-18T11:56:50;27.50;26.50
254;DHT22;590;48.772;8.846;2022-08-18T11:59:31;27.30;24.20
254;DHT22;590;48.772;8.846;2022-08-18T12:02:22;27.10;24.60
254;DHT22;590;48.772;8.846;2022-08-18T12:04:54;27.00;26.50
254;DHT22;590;48.772;8.846;2022-08-18T12:07:32;26.90;26.10
254;DHT22;590;48.772;8.846;2022-08-18T12:10:18;26.80;25.50
254;DHT22;590;48.772;8.846;2022-08-18T12:12:55;26.60;25.70
254;DHT22;590;48.772;8.846;2022-08-18T12:15:29;26.60;27.00
254;DHT22;590;48.772;8.846;2022-08-18T12:18:15;26.60;27.50
254;DHT22;590;48.772;8.846;2022-08-18T12:20:55;26.60;26.60
254;DHT22;590;48.772;8.846;2022-08-18T12:23:44;26.50;26.40
254;DHT22;590;48.772;8.846;2022-08-18T12:26:18;26.40;26.80
254;DHT22;590;48.772;8.846;2022-08-18T12:29:04;26.40;26.40
254;DHT22;590;48.772;8.846;2022-08-18T12:31:36;26.40;26.30
254;DHT22;590;48.772;8.846;2022-08-18T12:34:26;26.40;25.80
254;DHT22;590;48.772;8.846;2022-08-18T12:36:57;26.40;25.40
254;DHT22;590;48.772;8.846;2022-08-18T12:39:27;26.50;25.80
254;DHT22;590;48.772;8.846;2022-08-18T12:41:55;26.60;25.50
254;DHT22;590;48.772;8.846;2022-08-18T12:44:25;26.80;26.00
254;DHT22;590;48.772;8.846;2022-08-18T12:46:53;27.00;24.20
254;DHT22;590;48.772;8.846;2022-08-18T12:49:26;26.90;23.00
254;DHT22;590;48.772;8.846;2022-08-18T12:51:55;26.90;23.70
254;DHT22;590;48.772;8.846;2022-08-18T12:54:24;26.90;23.80
254;DHT22;590;48.772;8.846;2022-08-18T12:56:53;27.10;24.60
254;DHT22;590;48.772;8.846;2022-08-18T12:59:21;27.30;23.90
254;DHT22;590;48.772;8.846;2022-08-18T13:01:50;27.20;22.60
254;DHT22;590;48.772;8.846;2022-08-18T13:04:26;27.00;21.00
254;DHT22;590;48.772;8.846;2022-08-18T13:06:58;26.90;21.50
254;DHT22;590;48.772;8.846;2022-08-18T13:09:33;26.70;17.80
254;DHT22;590;48.772;8.846;2022-08-18T13:12:20;26.70;18.90
254;DHT22;590;48.772;8.846;2022-08-18T13:14:50;26.60;22.00
254;DHT22;590;48.772;8.846;2022-08-18T13:17:20;26.40;24.50
254;DHT22;590;48.772;8.846;2022-08-18T13:20:03;26.40;24.80
254;DHT22;590;48.772;8.846;2022-08-18T13:22:33;26.40;24.00
254;DHT22;590;48.772;8.846;2022-08-18T13:25:02;26.40;22.90
254;DHT22;590;48.772;8.846;2022-08-18T13:27:32;26.50;23.10
254;DHT22;590;48.772;8.846;2022-08-18T13:30:06;26.60;21.60
254;DHT22;590;48.772;8.846;2022-08-18T13:32:56;26.70;22.30
254;DHT22;590;48.772;8.846;2022-08-18T13:35:32;26.90;21.60
254;DHT22;590;48.772;8.846;2022-08-18T13:38:10;27.00;21.40
254;DHT22;590;48.772;8.846;2022-08-18T13:40:46;26.90;18.80
254;DHT22;590;48.772;8.846;2022-08-18T13:43:15;26.90;18.60
254;DHT22;590;48.772;8.846;2022-08-18T13:45:43;26.70;18.90
254;DHT22;590;48.772;8.846;2022-08-18T13:48:22;26.70;19.80
254;DHT22;590;48.772;8.846;2022-08-18T13:50:53;26.80;20.60
254;DHT22;590;48.772;8.846;2022-08-18T13:53:23;27.00;21.50
254;DHT22;590;48.772;8.846;2022-08-18T13:55:53;27.10;22.60
254;DHT22;590;48.772;8.846;2022-08-18T13:58:24;27.10;20.60
254;DHT22;590;48.772;8.846;2022-08-18T14:00:56;27.10;20.80
254;DHT22;590;48.772;8.846;2022-08-18T14:03:44;27.00;20.80
254;DHT22;590;48.772;8.846;2022-08-18T14:06:15;26.90;21.60
254;DHT22;590;48.772;8.846;2022-08-18T14:08:50;27.00;22.00
254;DHT22;590;48.772;8.846;2022-08-18T14:11:20;27.00;19.80
254;DHT22;590;48.772;8.846;2022-08-18T14:13:51;26.90;20.20
254;DHT22;590;48.772;8.846;2022-08-18T14:16:21;27.00;20.70
254;DHT22;590;48.772;8.846;2022-08-18T14:18:52;27.00;19.70
254;DHT22;590;48.772;8.846;2022-08-18T14:21:43;27.00;20.70
254;DHT22;590;48.772;8.846;2022-08-18T14:24:30;27.00;20.70
254;DHT22;590;48.772;8.846;2022-08-18T14:27:15;27.00;21.90
254;DHT22;590;48.772;8.846;2022-08-18T14:29:44;27.00;22.80
254;DHT22;590;48.772;8.846;2022-08-18T14:32:18;27.10;22.20
254;DHT22;590;48.772;8.846;2022-08-18T14:34:54;27.10;21.90
254;DHT22;590;48.772;8.846;2022-08-18T14:37:28;27.10;22.40
254;DHT22;590;48.772;8.846;2022-08-18T14:39:59;27.10;20.80
254;DHT22;590;48.772;8.846;2022-08-18T14:42:28;27.00;21.90
254;DHT22;590;48.772;8.846;2022-08-18T14:45:16;27.10;22.20
254;DHT22;590;48.772;8.846;2022-08-18T14:48:00;27.00;21.00
254;DHT22;590;48.772;8.846;2022-08-18T14:50:33;27.00;20.80
254;DHT22;590;48.772;8.846;2022-08-18T14:53:04;26.90;21.40
254;DHT22;590;48.772;8.846;2022-08-18T14:55:32;26.80;20.80
254;DHT22;590;48.772;8.846;2022-08-18T14:58:01;26.80;22.30
254;DHT22;590;48.772;8.846;2022-08-18T15:00:33;26.70;22.00
254;DHT22;590;48.772;8.846;2022-08-18T15:03:20;26.60;22.00
254;DHT22;590;48.772;8.846;2022-08-18T15:05:57;26.50;22.20
254;DHT22;590;48.772;8.846;2022-08-18T15:08:27;26.50;23.30
254;DHT22;590;48.772;8.846;2022-08-18T15:10:55;26.50;23.40
254;DHT22;590;48.772;8.846;2022-08-18T15:13:25;26.50;23.30
254;DHT22;590;48.772;8.846;2022-08-18T15:15:53;26.60;23.20
254;DHT22;590;48.772;8.846;2022-08-18T15:18:28;26.60;21.60
254;DHT22;590;48.772;8.846;2022-08-18T15:20:58;26.50;21.20
254;DHT22;590;48.772;8.846;2022-08-18T15:24:05;26.40;21.20
254;DHT22;590;48.772;8.846;2022-08-18T15:26:52;26.40;21.70
254;DHT22;590;48.772;8.846;2022-08-18T15:29:25;26.40;22.00
254;DHT22;590;48.772;8.846;2022-08-18T15:31:56;26.50;22.80
254;DHT22;590;48.772;8.846;2022-08-18T15:34:33;26.50;21.70
254;DHT22;590;48.772;8.846;2022-08-18T15:37:17;26.50;21.00
254;DHT22;590;48.772;8.846;2022-08-18T15:40:00;26.50;20.80
254;DHT22;590;48.772;8.846;2022-08-18T15:42:31;26.50;21.30
254;DHT22;590;48.772;8.846;2022-08-18T15:45:03;26.60;22.20
254;DHT22;590;48.772;8.846;2022-08-18T15:47:38;26.60;22.90
254;DHT22;590;48.772;8.846;2022-08-18T15:50:09;26.70;21.90
254;DHT22;590;48.772;8.846;2022-08-18T15:52:53;26.70;21.90
254;DHT22;590;48.772;8.846;2022-08-18T15:55:25;26.70;21.60
254;DHT22;590;48.772;8.846;2022-08-18T15:57:54;26.60;21.60
254;DHT22;590;48.772;8.846;2022-08-18T16:00:25;26.60;21.70
254;DHT22;590;48.772;8.846;2022-08-18T16:02:57;26.50;21.90
254;DHT22;590;48.772;8.846;2022-08-18T16:05:27;26.30;23.00
254;DHT22;590;48.772;8.846;2022-08-18T16:07:57;26.20;24.10
254;DHT22;590;48.772;8.846;2022-08-18T16:10:30;26.10;25.60
254;DHT22;590;48.772;8.846;2022-08-18T16:12:59;25.90;26.00
254;DHT22;590;48.772;8.846;2022-08-18T16:15:33;25.60;28.60
254;DHT22;590;48.772;8.846;2022-08-18T16:18:03;25.30;32.30
254;DHT22;590;48.772;8.846;2022-08-18T16:20:32;25.00;34.40
254;DHT22;590;48.772;8.846;2022-08-18T16:23:01;24.70;35.30
254;DHT22;590;48.772;8.846;2022-08-18T16:25:30;24.50;36.30
254;DHT22;590;48.772;8.846;2022-08-18T16:27:59;24.20;37.30
254;DHT22;590;48.772;8.846;2022-08-18T16:30:27;24.10;39.00
254;DHT22;590;48.772;8.846;2022-08-18T16:32:59;24.00;40.70
254;DHT22;590;48.772;8.846;2022-08-18T16:35:29;24.00;41.90
254;DHT22;590;48.772;8.846;2022-08-18T16:38:01;24.00;43.30
254;DHT22;590;48.772;8.846;2022-08-18T16:40:31;24.00;44.90
254;DHT22;590;48.772;8.846;2022-08-18T16:42:59;24.00;45.60
254;DHT22;590;48.772;8.846;2022-08-18T16:45:27;24.10;46.50
254;DHT22;590;48.772;8.846;2022-08-18T16:47:57;24.10;46.90
254;DHT22;590;48.772;8.846;2022-08-18T16:50:25;24.10;47.10
254;DHT22;590;48.772;8.846;2022-08-18T16:52:53;24.20;48.10
254;DHT22;590;48.772;8.846;2022-08-18T16:55:22;24.10;48.90
254;DHT22;590;48.772;8.846;2022-08-18T16:57:51;24.10;50.40
254;DHT22;590;48.772;8.846;2022-08-18T17:00:41;24.10;50.70
254;DHT22;590;48.772;8.846;2022-08-18T17:03:26;24.20;51.60
254;DHT22;590;48.772;8.846;2022-08-18T17:06:14;24.20;51.90
254;DHT22;590;48.772;8.846;2022-08-18T17:08:43;24.20;52.30
254;DHT22;590;48.772;8.846;2022-08-18T17:11:13;24.20;52.10
254;DHT22;590;48.772;8.846;2022-08-18T17:13:44;24.20;52.80
254;DHT22;590;48.772;8.846;2022-08-18T17:16:14;24.30;53.00
254;DHT22;590;48.772;8.846;2022-08-18T17:18:42;24.40;53.50
254;DHT22;590;48.772;8.846;2022-08-18T17:21:13;24.30;53.30
254;DHT22;590;48.772;8.846;2022-08-18T17:23:42;24.20;53.50
254;DHT22;590;48.772;8.846;2022-08-18T17:26:14;24.20;54.10
254;DHT22;590;48.772;8.846;2022-08-18T17:28:50;24.20;54.50
254;DHT22;590;48.772;8.846;2022-08-18T17:31:22;24.10;54.60
254;DHT22;590;48.772;8.846;2022-08-18T17:33:52;24.10;55.20
254;DHT22;590;48.772;8.846;2022-08-18T17:36:30;24.10;54.80
254;DHT22;590;48.772;8.846;2022-08-18T17:39:02;24.10;54.30
254;DHT22;590;48.772;8.846;2022-08-18T17:41:30;24.00;54.20
254;DHT22;590;48.772;8.846;2022-08-18T17:44:21;24.00;53.90
254;DHT22;590;48.772;8.846;2022-08-18T17:46:57;24.00;53.90
254;DHT22;590;48.772;8.846;2022-08-18T17:49:31;23.90;54.00
254;DHT22;590;48.772;8.846;2022-08-18T17:52:14;23.80;54.00
254;DHT22;590;48.772;8.846;2022-08-18T17:54:48;23.70;54.50
254;DHT22;590;48.772;8.846;2022-08-18T17:57:21;23.70;54.20
254;DHT22;590;48.772;8.846;2022-08-18T17:59:57;23.70;54.40